createdAt,value
2023-06-07T00:00:29.050Z,5.84
2023-06-07T00:01:29.108Z,5.77
2023-06-07T00:02:42.174Z,5.74
2023-06-07T00:03:30.289Z,5.75
2023-06-07T00:04:29.278Z,5.77
2023-06-07T00:05:29.126Z,5.84
2023-06-07T00:06:29.139Z,5.95
2023-06-07T00:07:29.110Z,6.22
2023-06-07T00:08:29.121Z,6.15
2023-06-07T00:09:29.248Z,6.13
2023-06-07T00:10:29.112Z,6.20
2023-06-07T00:11:29.104Z,6.16
2023-06-07T00:12:29.111Z,6.30
2023-06-07T00:13:29.159Z,6.58
2023-06-07T00:14:29.212Z,6.45
2023-06-07T00:15:29.243Z,6.38
2023-06-07T00:16:29.284Z,6.63
2023-06-07T00:17:29.489Z,6.80
2023-06-07T00:18:29.585Z,6.73
2023-06-07T00:19:29.431Z,6.96
2023-06-07T00:20:29.470Z,7.34
2023-06-07T00:21:29.473Z,7.18
2023-06-07T00:22:29.497Z,7.03
2023-06-07T00:23:29.629Z,7.34
2023-06-07T00:24:29.597Z,7.67
2023-06-07T00:25:29.610Z,7.35
2023-06-07T00:26:29.631Z,7.05
2023-06-07T00:27:29.651Z,7.07
2023-06-07T00:28:29.941Z,7.16
2023-06-07T00:29:29.685Z,7.40
2023-06-07T00:30:29.713Z,7.54
2023-06-07T00:31:29.853Z,7.90
2023-06-07T00:32:29.869Z,7.92
2023-06-07T00:33:29.842Z,7.96
2023-06-07T00:34:29.878Z,8.08
2023-06-07T00:35:29.911Z,8.07
2023-06-07T00:36:29.951Z,8.27
2023-06-07T00:37:29.968Z,8.43
2023-06-07T00:38:29.989Z,8.14
2023-06-07T00:39:30.005Z,8.31
2023-06-07T00:40:30.029Z,8.51
2023-06-07T00:41:30.047Z,8.83
2023-06-07T00:42:30.063Z,8.91
2023-06-07T00:43:30.088Z,9.11
2023-06-07T00:44:30.108Z,9.46
2023-06-07T00:45:30.129Z,9.74
2023-06-07T00:46:30.166Z,9.49
2023-06-07T00:47:30.202Z,9.78
2023-06-07T00:48:30.257Z,10.50
2023-06-07T00:49:30.160Z,10.73
2023-06-07T00:50:30.169Z,11.18
2023-06-07T00:51:30.189Z,10.95
2023-06-07T00:52:30.201Z,11.54
2023-06-07T00:53:30.248Z,11.49
2023-06-07T00:54:30.271Z,11.78
2023-06-07T00:55:30.281Z,11.59
2023-06-07T00:56:30.288Z,11.87
2023-06-07T00:57:30.316Z,11.94
2023-06-07T00:58:30.338Z,11.86
2023-06-07T00:59:30.358Z,11.70
2023-06-07T01:00:30.351Z,11.72
2023-06-07T01:01:30.520Z,12.13
2023-06-07T01:02:30.473Z,12.14
2023-06-07T01:03:30.499Z,11.97
2023-06-07T01:04:30.432Z,11.88
2023-06-07T01:05:30.434Z,11.89
2023-06-07T01:06:30.474Z,11.86
2023-06-07T01:07:30.467Z,12.08
2023-06-07T01:08:30.488Z,11.84
2023-06-07T01:09:30.520Z,11.94
2023-06-07T01:10:30.509Z,11.97
2023-06-07T01:11:30.499Z,11.80
2023-06-07T01:12:30.524Z,12.02
2023-06-07T01:13:30.517Z,11.51
2023-06-07T01:14:30.523Z,11.54
2023-06-07T01:15:30.544Z,11.61
2023-06-07T01:16:30.591Z,11.60
2023-06-07T01:17:30.602Z,11.05
2023-06-07T01:18:30.599Z,11.03
2023-06-07T01:19:30.625Z,11.14
2023-06-07T01:20:30.632Z,11.09
2023-06-07T01:21:30.636Z,10.91
2023-06-07T01:22:30.649Z,10.90
2023-06-07T01:23:30.637Z,10.74
2023-06-07T01:24:30.645Z,11.04
2023-06-07T01:25:30.637Z,10.82
2023-06-07T01:26:30.642Z,11.26
2023-06-07T01:27:30.644Z,11.08
2023-06-07T01:28:30.626Z,11.46
2023-06-07T01:29:30.638Z,11.52
2023-06-07T01:30:30.691Z,11.12
2023-06-07T01:31:30.647Z,11.18
2023-06-07T01:32:30.658Z,11.35
2023-06-07T01:33:30.639Z,11.54
2023-06-07T01:34:30.633Z,11.69
2023-06-07T01:35:30.651Z,11.75
2023-06-07T01:36:30.642Z,11.34
2023-06-07T01:37:30.653Z,11.27
2023-06-07T01:38:30.663Z,11.50
2023-06-07T01:39:30.645Z,11.01
2023-06-07T01:40:30.657Z,10.71
2023-06-07T01:41:30.660Z,11.17
2023-06-07T01:42:30.675Z,11.19
2023-06-07T01:43:30.679Z,10.89
2023-06-07T01:44:30.663Z,10.93
2023-06-07T01:45:30.723Z,10.89
2023-06-07T01:46:30.722Z,10.76
2023-06-07T01:47:30.697Z,10.98
2023-06-07T01:48:30.692Z,10.87
2023-06-07T01:49:30.692Z,10.82
2023-06-07T01:50:30.679Z,10.47
2023-06-07T01:51:30.693Z,10.61
2023-06-07T01:52:30.671Z,10.72
2023-06-07T01:53:30.692Z,10.91
2023-06-07T01:54:30.703Z,11.05
2023-06-07T01:55:30.692Z,11.17
2023-06-07T01:56:30.703Z,11.30
2023-06-07T01:57:30.728Z,10.84
2023-06-07T01:58:30.672Z,10.99
2023-06-07T01:59:30.687Z,11.13
2023-06-07T02:00:30.684Z,10.79
2023-06-07T02:01:30.715Z,10.73
2023-06-07T02:02:30.750Z,10.91
2023-06-07T02:03:30.688Z,10.71
2023-06-07T02:04:30.687Z,10.64
2023-06-07T02:05:30.705Z,10.59
2023-06-07T02:06:30.681Z,10.68
2023-06-07T02:07:30.681Z,10.58
2023-06-07T02:08:30.694Z,10.60
2023-06-07T02:09:30.677Z,10.67
2023-06-07T02:10:30.672Z,10.70
2023-06-07T02:11:30.668Z,10.65
2023-06-07T02:12:30.670Z,10.83
2023-06-07T02:13:30.695Z,10.85
2023-06-07T02:14:30.676Z,10.73
2023-06-07T02:15:30.699Z,10.66
2023-06-07T02:16:30.682Z,10.60
2023-06-07T02:17:30.858Z,10.49
2023-06-07T02:18:30.700Z,10.18
2023-06-07T02:19:30.691Z,10.44
2023-06-07T02:20:30.716Z,10.39
2023-06-07T02:21:30.704Z,10.19
2023-06-07T02:22:30.729Z,10.54
2023-06-07T02:23:30.713Z,10.87
2023-06-07T02:24:30.703Z,10.75
2023-06-07T02:25:30.693Z,10.46
2023-06-07T02:26:30.720Z,10.83
2023-06-07T02:27:30.696Z,10.77
2023-06-07T02:28:30.722Z,10.78
2023-06-07T02:29:30.700Z,10.69
2023-06-07T02:30:30.719Z,11.07
2023-06-07T02:31:30.744Z,11.45
2023-06-07T02:32:30.723Z,11.20
2023-06-07T02:33:30.721Z,11.21
2023-06-07T02:34:30.722Z,11.25
2023-06-07T02:35:30.778Z,11.56
2023-06-07T02:36:30.734Z,11.57
2023-06-07T02:37:30.735Z,11.74
2023-06-07T02:38:30.762Z,11.97
2023-06-07T02:39:30.753Z,11.92
2023-06-07T02:40:30.785Z,11.85
2023-06-07T02:41:30.777Z,11.67
2023-06-07T02:42:30.770Z,12.03
2023-06-07T02:43:30.786Z,12.03
2023-06-07T02:44:30.777Z,11.92
2023-06-07T02:45:30.787Z,11.95
2023-06-07T02:46:30.808Z,12.11
2023-06-07T02:47:30.806Z,12.01
2023-06-07T02:48:30.824Z,11.58
2023-06-07T02:49:30.823Z,11.65
2023-06-07T02:50:30.854Z,11.73
2023-06-07T02:51:30.859Z,11.42
2023-06-07T02:52:30.848Z,11.39
2023-06-07T02:53:30.841Z,11.39
2023-06-07T02:54:30.871Z,11.10
2023-06-07T02:55:30.882Z,11.41
2023-06-07T02:56:30.887Z,11.31
2023-06-07T02:57:30.914Z,11.71
2023-06-07T02:58:30.896Z,11.55
2023-06-07T02:59:30.908Z,11.62
2023-06-07T03:00:30.920Z,12.28
2023-06-07T03:01:30.974Z,12.40
2023-06-07T03:02:31.068Z,12.80
2023-06-07T03:03:31.073Z,13.20
2023-06-07T03:04:30.966Z,13.54
2023-06-07T03:05:30.970Z,13.45
2023-06-07T03:06:31.001Z,14.47
2023-06-07T03:07:30.990Z,14.03
2023-06-07T03:08:31.006Z,14.68
2023-06-07T03:09:31.008Z,14.48
2023-06-07T03:10:31.033Z,15.18
2023-06-07T03:11:31.016Z,14.91
2023-06-07T03:12:31.035Z,15.00
2023-06-07T03:13:31.059Z,15.32
2023-06-07T03:14:31.070Z,15.06
2023-06-07T03:15:31.060Z,15.34
2023-06-07T03:16:31.178Z,15.92
2023-06-07T03:17:31.117Z,15.99
2023-06-07T03:18:31.074Z,16.34
2023-06-07T03:19:31.123Z,16.12
2023-06-07T03:20:31.152Z,16.15
2023-06-07T03:21:31.117Z,16.37
2023-06-07T03:22:31.135Z,15.96
2023-06-07T03:23:31.214Z,15.88
2023-06-07T03:24:31.148Z,16.22
2023-06-07T03:25:31.277Z,16.39
2023-06-07T03:26:31.184Z,16.31
2023-06-07T03:27:31.201Z,15.89
2023-06-07T03:28:31.194Z,15.39
2023-06-07T03:29:31.220Z,15.45
2023-06-07T03:30:31.240Z,15.72
2023-06-07T03:31:31.272Z,15.97
2023-06-07T03:32:31.258Z,15.65
2023-06-07T03:33:31.255Z,15.27
2023-06-07T03:34:31.255Z,15.29
2023-06-07T03:35:31.282Z,15.45
2023-06-07T03:36:31.303Z,15.20
2023-06-07T03:37:31.312Z,15.26
2023-06-07T03:38:31.320Z,15.04
2023-06-07T03:39:31.314Z,14.85
2023-06-07T03:40:31.348Z,14.58
2023-06-07T03:41:31.358Z,14.29
2023-06-07T03:42:31.368Z,14.35
2023-06-07T03:43:31.362Z,14.06
2023-06-07T03:44:31.404Z,13.29
2023-06-07T03:45:31.414Z,12.98
2023-06-07T03:46:31.429Z,13.06
2023-06-07T03:47:31.465Z,13.16
2023-06-07T03:48:31.553Z,13.60
2023-06-07T03:49:31.445Z,13.20
2023-06-07T03:50:31.467Z,13.13
2023-06-07T03:51:31.455Z,12.83
2023-06-07T03:52:31.463Z,12.35
2023-06-07T03:53:31.502Z,12.28
2023-06-07T03:54:31.484Z,12.33
2023-06-07T03:55:31.524Z,12.32
2023-06-07T03:56:31.520Z,11.95
2023-06-07T03:57:31.551Z,11.70
2023-06-07T03:58:31.532Z,11.09
2023-06-07T03:59:31.577Z,11.24
2023-06-07T04:00:31.567Z,11.17
2023-06-07T04:01:31.597Z,11.56
2023-06-07T04:02:31.653Z,11.16
2023-06-07T04:03:31.672Z,11.31
2023-06-07T04:04:31.692Z,11.06
2023-06-07T04:05:31.636Z,11.16
2023-06-07T04:06:31.667Z,11.47
2023-06-07T04:07:31.644Z,11.22
2023-06-07T04:08:31.651Z,11.21
2023-06-07T04:09:31.685Z,11.05
2023-06-07T04:10:31.690Z,11.08
2023-06-07T04:11:31.701Z,11.06
2023-06-07T04:12:31.713Z,11.13
2023-06-07T04:13:31.723Z,11.12
2023-06-07T04:14:31.735Z,11.12
2023-06-07T04:15:31.737Z,10.62
2023-06-07T04:16:31.788Z,10.84
2023-06-07T04:17:31.862Z,11.16
2023-06-07T04:18:31.791Z,10.97
2023-06-07T04:19:31.784Z,10.96
2023-06-07T04:20:31.802Z,10.52
2023-06-07T04:21:31.813Z,10.74
2023-06-07T04:22:31.856Z,10.63
2023-06-07T04:23:31.859Z,10.39
2023-06-07T04:24:31.842Z,10.69
2023-06-07T04:25:31.831Z,10.86
2023-06-07T04:26:31.848Z,10.52
2023-06-07T04:27:31.870Z,10.41
2023-06-07T04:28:31.919Z,10.44
2023-06-07T04:29:31.882Z,10.35
2023-06-07T04:30:31.900Z,10.46
2023-06-07T04:31:31.943Z,10.35
2023-06-07T04:32:31.927Z,10.35
2023-06-07T04:33:31.890Z,10.53
2023-06-07T04:34:31.906Z,10.24
2023-06-07T04:35:31.949Z,10.08
2023-06-07T04:36:31.920Z,10.03
2023-06-07T04:37:32.922Z,10.01
2023-06-07T04:38:33.354Z,10.30
2023-06-07T04:39:31.938Z,10.31
2023-06-07T04:40:31.945Z,10.11
2023-06-07T04:41:32.046Z,10.46
2023-06-07T04:42:31.940Z,10.44
2023-06-07T04:43:31.943Z,10.46
2023-06-07T04:44:31.963Z,10.62
2023-06-07T04:45:32.002Z,10.61
2023-06-07T04:46:32.181Z,10.45
2023-06-07T04:47:32.014Z,10.43
2023-06-07T04:48:31.982Z,11.36
2023-06-07T04:49:31.986Z,11.84
2023-06-07T04:50:31.982Z,12.76
2023-06-07T04:51:32.009Z,13.36
2023-06-07T04:52:31.997Z,13.51
2023-06-07T04:53:31.978Z,13.60
2023-06-07T04:54:31.980Z,14.07
2023-06-07T04:55:31.982Z,14.54
2023-06-07T04:56:31.982Z,14.52
2023-06-07T04:57:31.996Z,14.79
2023-06-07T04:58:31.971Z,15.29
2023-06-07T04:59:31.993Z,15.35
2023-06-07T05:00:32.003Z,15.00
2023-06-07T05:01:32.006Z,15.00
2023-06-07T05:02:32.024Z,15.01
2023-06-07T05:03:32.006Z,15.42
2023-06-07T05:04:32.035Z,15.56
2023-06-07T05:05:32.067Z,15.72
2023-06-07T05:06:32.049Z,15.72
2023-06-07T05:07:32.043Z,16.21
2023-06-07T05:08:32.081Z,15.53
2023-06-07T05:09:32.165Z,15.98
2023-06-07T05:10:32.125Z,16.01
2023-06-07T05:11:32.138Z,15.88
2023-06-07T05:12:32.143Z,16.13
2023-06-07T05:13:32.198Z,16.26
2023-06-07T05:14:32.213Z,16.18
2023-06-07T05:15:32.225Z,16.93
2023-06-07T05:16:32.326Z,16.85
2023-06-07T05:17:32.279Z,16.24
2023-06-07T05:18:32.255Z,16.18
2023-06-07T05:19:32.309Z,16.86
2023-06-07T05:20:32.350Z,15.78
2023-06-07T05:21:32.427Z,15.53
2023-06-07T05:22:32.462Z,15.21
2023-06-07T05:23:32.478Z,14.97
2023-06-07T05:24:32.532Z,16.80
2023-06-07T05:25:32.638Z,17.14
2023-06-07T05:26:33.036Z,17.01
2023-06-07T05:27:32.693Z,17.26
2023-06-07T05:28:32.750Z,15.78
2023-06-07T05:29:32.814Z,15.87
2023-06-07T05:30:32.851Z,16.25
2023-06-07T05:31:32.978Z,17.46
2023-06-07T05:32:33.010Z,21.91
2023-06-07T05:33:33.032Z,26.88
2023-06-07T05:34:33.097Z,30.90
2023-06-07T05:35:33.167Z,33.26
2023-06-07T05:36:33.201Z,38.91
2023-06-07T05:37:33.239Z,44.13
2023-06-07T05:38:33.382Z,47.55
2023-06-07T05:39:33.326Z,50.27
2023-06-07T05:40:33.374Z,53.17
2023-06-07T05:41:33.511Z,55.90
2023-06-07T05:42:33.451Z,56.87
2023-06-07T05:43:33.483Z,61.29
2023-06-07T05:44:33.497Z,62.80
2023-06-07T05:45:33.527Z,65.87
2023-06-07T05:46:33.580Z,68.45
2023-06-07T05:47:33.609Z,72.47
2023-06-07T05:48:33.617Z,77.35
2023-06-07T05:49:33.614Z,77.05
2023-06-07T05:50:33.654Z,80.05
2023-06-07T05:51:33.699Z,83.31
2023-06-07T05:52:33.674Z,86.96
2023-06-07T05:53:33.694Z,88.76
2023-06-07T05:54:33.715Z,91.09
2023-06-07T05:55:33.755Z,94.93
2023-06-07T05:56:33.746Z,94.45
2023-06-07T05:57:33.783Z,93.96
2023-06-07T05:58:33.757Z,95.94
2023-06-07T05:59:33.775Z,98.32
2023-06-07T06:00:33.805Z,95.54
2023-06-07T06:01:33.766Z,95.69
2023-06-07T06:02:33.930Z,97.70
2023-06-07T06:03:33.832Z,98.66
2023-06-07T06:04:33.901Z,96.95
2023-06-07T06:05:33.795Z,96.07
2023-06-07T06:06:33.807Z,96.45
2023-06-07T06:07:33.802Z,96.51
2023-06-07T06:08:33.780Z,96.99
2023-06-07T06:09:33.791Z,98.35
2023-06-07T06:10:35.798Z,96.96
2023-06-07T06:11:33.909Z,95.98
2023-06-07T06:12:33.948Z,99.63
2023-06-07T06:13:33.937Z,98.53
2023-06-07T06:14:34.001Z,98.92
2023-06-07T06:15:34.000Z,97.69
2023-06-07T06:16:34.052Z,95.92
2023-06-07T06:17:34.078Z,99.15
2023-06-07T06:18:34.138Z,101.15
2023-06-07T06:19:34.202Z,97.67
2023-06-07T06:20:34.251Z,97.40
2023-06-07T06:21:34.474Z,101.74
2023-06-07T06:22:34.376Z,101.19
2023-06-07T06:23:34.446Z,99.72
2023-06-07T06:24:34.493Z,98.50
2023-06-07T06:25:34.547Z,100.12
2023-06-07T06:26:34.988Z,98.39
2023-06-07T06:27:34.661Z,96.58
2023-06-07T06:28:34.711Z,96.49
2023-06-07T06:29:34.737Z,93.12
2023-06-07T06:30:34.792Z,92.91
2023-06-07T06:31:35.101Z,81.41
2023-06-07T06:32:34.896Z,69.97
2023-06-07T06:33:34.939Z,62.57
2023-06-07T06:34:34.981Z,57.64
2023-06-07T06:35:35.052Z,49.71
2023-06-07T06:36:35.469Z,44.67
2023-06-07T06:37:35.169Z,39.40
2023-06-07T06:38:35.200Z,45.96
2023-06-07T06:39:35.238Z,48.88
2023-06-07T06:40:35.305Z,49.92
2023-06-07T06:41:35.400Z,46.40
2023-06-07T06:42:35.437Z,48.62
2023-06-07T06:43:35.453Z,48.40
2023-06-07T06:44:35.522Z,48.66
2023-06-07T06:45:35.544Z,50.86
2023-06-07T06:46:36.064Z,50.88
2023-06-07T06:47:35.674Z,50.43
2023-06-07T06:48:35.721Z,50.74
2023-06-07T06:49:35.846Z,51.01
2023-06-07T06:50:36.008Z,52.18
2023-06-07T06:51:35.988Z,51.31
2023-06-07T06:52:35.815Z,49.80
2023-06-07T06:53:35.843Z,48.76
2023-06-07T06:54:35.851Z,52.26
2023-06-07T06:55:35.876Z,54.24
2023-06-07T06:56:35.988Z,55.74
2023-06-07T06:57:35.952Z,57.29
2023-06-07T06:58:36.012Z,56.88
2023-06-07T06:59:35.946Z,56.98
2023-06-07T07:00:35.965Z,58.31
2023-06-07T07:01:36.531Z,55.45
2023-06-07T07:02:35.992Z,53.70
2023-06-07T07:03:36.043Z,55.24
2023-06-07T07:04:36.127Z,55.17
2023-06-07T07:05:36.011Z,56.37
2023-06-07T07:06:36.097Z,59.43
2023-06-07T07:07:36.024Z,57.56
2023-06-07T07:08:36.029Z,55.47
2023-06-07T07:09:36.009Z,56.72
2023-06-07T07:10:36.013Z,57.70
2023-06-07T07:11:36.050Z,61.20
2023-06-07T07:12:36.107Z,61.37
2023-06-07T07:13:36.172Z,61.20
2023-06-07T07:14:36.285Z,64.25
2023-06-07T07:15:36.257Z,63.67
2023-06-07T07:16:38.834Z,59.73
2023-06-07T07:17:36.304Z,60.54
2023-06-07T07:18:36.274Z,60.44
2023-06-07T07:19:36.275Z,57.98
2023-06-07T07:20:36.236Z,58.71
2023-06-07T07:21:36.600Z,57.69
2023-06-07T07:22:36.258Z,56.63
2023-06-07T07:23:36.325Z,53.76
2023-06-07T07:24:37.261Z,45.19
2023-06-07T07:25:36.235Z,28.23
2023-06-07T07:26:36.532Z,20.50
2023-06-07T07:27:36.201Z,14.92
2023-06-07T07:28:36.213Z,11.51
2023-06-07T07:29:36.191Z,8.20
2023-06-07T07:30:36.181Z,6.68
2023-06-07T07:31:36.512Z,6.19
2023-06-07T07:32:36.225Z,7.01
2023-06-07T07:33:36.155Z,5.93
2023-06-07T07:34:36.512Z,3.87
2023-06-07T07:35:36.499Z,2.72
2023-06-07T07:36:36.154Z,2.15
2023-06-07T07:37:36.148Z,1.84
2023-06-07T07:38:36.127Z,1.59
2023-06-07T07:39:36.122Z,1.51
2023-06-07T07:40:36.131Z,1.58
2023-06-07T07:41:36.180Z,1.32
2023-06-07T07:42:36.203Z,1.37
2023-06-07T07:43:38.099Z,1.41
2023-06-07T07:44:36.298Z,1.04
2023-06-07T07:45:36.523Z,0.70
2023-06-07T07:46:36.532Z,0.49
2023-06-07T07:47:36.474Z,0.51
2023-06-07T07:48:36.445Z,0.52
2023-06-07T07:49:36.738Z,0.62
2023-06-07T07:50:36.530Z,0.51
2023-06-07T07:51:36.566Z,0.43
2023-06-07T07:52:36.603Z,0.39
2023-06-07T07:53:36.654Z,0.42
2023-06-07T07:54:36.688Z,0.53
2023-06-07T07:55:36.724Z,0.79
2023-06-07T07:56:36.778Z,0.85
2023-06-07T07:57:36.799Z,0.96
2023-06-07T07:58:36.834Z,1.02
2023-06-07T07:59:36.896Z,1.11
2023-06-07T08:00:36.916Z,0.89
2023-06-07T08:01:37.019Z,0.89
2023-06-07T08:02:37.195Z,0.98
2023-06-07T08:03:37.362Z,0.94
2023-06-07T08:04:37.154Z,0.90
2023-06-07T08:05:37.164Z,0.89
2023-06-07T08:06:37.230Z,0.92
2023-06-07T08:07:37.285Z,0.87
2023-06-07T08:08:37.322Z,0.96
2023-06-07T08:09:37.430Z,1.11
2023-06-07T08:10:37.427Z,1.18
2023-06-07T08:11:37.500Z,1.35
2023-06-07T08:12:37.552Z,1.04
2023-06-07T08:13:37.595Z,0.73
2023-06-07T08:14:37.638Z,0.72
2023-06-07T08:15:37.678Z,0.77
2023-06-07T08:16:38.056Z,0.59
2023-06-07T08:17:37.767Z,0.63
2023-06-07T08:18:37.850Z,0.63
2023-06-07T08:19:37.858Z,0.58
2023-06-07T08:20:37.887Z,0.49
2023-06-07T08:21:38.046Z,0.37
2023-06-07T08:22:37.961Z,0.34
2023-06-07T08:23:38.121Z,0.34
2023-06-07T08:24:38.064Z,0.34
2023-06-07T08:25:38.086Z,0.34
2023-06-07T08:26:38.104Z,0.34
2023-06-07T08:27:38.157Z,0.40
2023-06-07T08:28:38.216Z,0.42
2023-06-07T08:29:38.261Z,0.51
2023-06-07T08:30:38.264Z,0.66
2023-06-07T08:31:38.330Z,0.59
2023-06-07T08:32:38.369Z,0.51
2023-06-07T08:33:38.359Z,0.57
2023-06-07T08:34:38.403Z,0.74
2023-06-07T08:35:38.445Z,1.26
2023-06-07T08:36:38.537Z,1.43
2023-06-07T08:37:38.515Z,1.03
2023-06-07T08:38:39.036Z,0.91
2023-06-07T08:39:38.598Z,1.25
2023-06-07T08:40:38.668Z,1.83
2023-06-07T08:41:39.043Z,3.47
2023-06-07T08:42:38.684Z,5.41
2023-06-07T08:43:38.755Z,7.49
2023-06-07T08:44:38.730Z,8.99
2023-06-07T08:45:40.578Z,10.40
2023-06-07T08:46:38.834Z,12.70
2023-06-07T08:47:38.756Z,14.12
2023-06-07T08:48:38.762Z,17.61
2023-06-07T08:49:38.753Z,22.10
2023-06-07T08:50:38.716Z,25.93
2023-06-07T08:51:38.710Z,29.00
2023-06-07T08:52:38.800Z,33.97
2023-06-07T08:53:39.069Z,39.11
2023-06-07T08:54:38.714Z,42.87
2023-06-07T08:55:38.722Z,47.95
2023-06-07T08:56:39.079Z,54.38
2023-06-07T08:57:38.678Z,58.40
2023-06-07T08:58:38.674Z,62.88
2023-06-07T08:59:38.736Z,69.89
2023-06-07T09:00:38.697Z,77.21
2023-06-07T09:01:39.051Z,83.61
2023-06-07T09:02:38.701Z,90.76
2023-06-07T09:03:38.665Z,91.82
2023-06-07T09:04:38.651Z,98.12
2023-06-07T09:05:38.624Z,106.88
2023-06-07T09:06:38.629Z,113.43
2023-06-07T09:07:38.612Z,121.95
2023-06-07T09:08:38.636Z,126.06
2023-06-07T09:09:38.614Z,134.82
2023-06-07T09:10:38.600Z,137.67
2023-06-07T09:11:38.570Z,144.12
2023-06-07T09:12:38.579Z,150.37
2023-06-07T09:13:38.610Z,153.85
2023-06-07T09:14:38.572Z,158.31
2023-06-07T09:15:38.548Z,159.04
2023-06-07T09:16:38.616Z,161.06
2023-06-07T09:17:38.706Z,165.68
2023-06-07T09:18:38.561Z,169.87
2023-06-07T09:19:38.533Z,180.81
2023-06-07T09:20:38.503Z,187.39
2023-06-07T09:21:38.522Z,189.05
2023-06-07T09:22:38.488Z,194.89
2023-06-07T09:23:38.558Z,212.24
2023-06-07T09:24:38.495Z,217.03
2023-06-07T09:25:38.491Z,204.61
2023-06-07T09:26:38.575Z,184.06
2023-06-07T09:27:38.542Z,145.53
2023-06-07T09:28:38.711Z,88.77
2023-06-07T09:29:38.687Z,77.56
2023-06-07T09:30:38.642Z,55.91
2023-06-07T09:31:39.313Z,28.42
2023-06-07T09:33:38.767Z,11.18
2023-06-07T09:34:38.792Z,9.28
2023-06-07T09:35:38.916Z,7.34
2023-06-07T09:36:38.878Z,5.36
2023-06-07T09:37:38.964Z,4.29
2023-06-07T09:38:39.002Z,3.32
2023-06-07T09:39:38.995Z,3.98
2023-06-07T09:40:39.015Z,4.69
2023-06-07T09:41:39.134Z,2.98
2023-06-07T09:42:39.101Z,3.28
2023-06-07T09:43:39.218Z,2.33
2023-06-07T09:44:39.207Z,1.94
2023-06-07T09:45:39.384Z,1.49
2023-06-07T09:46:39.304Z,1.58
2023-06-07T09:47:39.337Z,1.88
2023-06-07T09:48:39.547Z,2.11
2023-06-07T09:49:39.398Z,2.12
2023-06-07T09:50:39.432Z,1.62
2023-06-07T09:51:39.538Z,1.76
2023-06-07T09:52:39.525Z,1.86
2023-06-07T09:53:39.576Z,2.74
2023-06-07T09:54:39.584Z,2.13
2023-06-07T09:55:39.669Z,2.07
2023-06-07T09:56:39.607Z,2.33
2023-06-07T09:57:39.676Z,1.89
2023-06-07T09:58:39.721Z,2.02
2023-06-07T09:59:39.836Z,2.11
2023-06-07T10:00:39.783Z,1.80
2023-06-07T10:01:40.331Z,1.38
2023-06-07T10:02:39.849Z,1.09
2023-06-07T10:03:39.912Z,0.92
2023-06-07T10:04:39.968Z,0.81
2023-06-07T10:05:39.871Z,0.88
2023-06-07T10:06:39.927Z,0.95
2023-06-07T10:07:40.033Z,0.88
2023-06-07T10:08:39.963Z,0.95
2023-06-07T10:09:40.018Z,1.01
2023-06-07T10:10:40.036Z,1.05
2023-06-07T10:11:40.086Z,1.53
2023-06-07T10:12:40.157Z,0.90
2023-06-07T10:13:40.126Z,0.65
2023-06-07T10:14:40.139Z,0.70
2023-06-07T10:15:40.205Z,0.78
2023-06-07T10:16:40.617Z,0.66
2023-06-07T10:17:40.263Z,0.64
2023-06-07T10:18:40.257Z,0.59
2023-06-07T10:19:40.334Z,0.51
2023-06-07T10:20:40.328Z,0.52
2023-06-07T10:21:40.385Z,0.51
2023-06-07T10:22:40.386Z,0.43
2023-06-07T10:23:40.508Z,0.34
2023-06-07T10:24:40.434Z,0.34
2023-06-07T10:25:40.458Z,0.34
2023-06-07T10:26:40.603Z,0.34
2023-06-07T10:27:40.558Z,0.34
2023-06-07T10:28:40.616Z,0.58
2023-06-07T10:29:40.599Z,0.48
2023-06-07T10:30:40.626Z,0.50
2023-06-07T10:31:41.221Z,0.55
2023-06-07T10:32:40.740Z,0.61
2023-06-07T10:33:40.725Z,0.53
2023-06-07T10:34:40.744Z,0.54
2023-06-07T10:35:40.803Z,0.48
2023-06-07T10:36:40.828Z,0.47
2023-06-07T10:37:40.868Z,0.46
2023-06-07T10:38:40.933Z,0.44
2023-06-07T10:39:40.992Z,0.54
2023-06-07T10:40:41.025Z,0.83
2023-06-07T10:41:41.109Z,0.79
2023-06-07T10:42:41.147Z,0.80
2023-06-07T10:43:41.122Z,0.76
2023-06-07T10:44:41.157Z,0.85
2023-06-07T10:45:41.201Z,1.04
2023-06-07T10:46:41.309Z,0.69
2023-06-07T10:47:41.408Z,0.55
2023-06-07T10:48:41.313Z,0.59
2023-06-07T10:49:41.751Z,0.78
2023-06-07T10:50:41.410Z,1.54
2023-06-07T10:51:41.452Z,1.89
2023-06-07T10:52:41.518Z,2.49
2023-06-07T10:53:41.525Z,2.53
2023-06-07T10:54:41.574Z,3.25
2023-06-07T10:55:41.687Z,3.51
2023-06-07T10:56:41.673Z,3.39
2023-06-07T10:57:41.688Z,3.91
2023-06-07T10:58:41.769Z,3.30
2023-06-07T10:59:41.837Z,3.98
2023-06-07T11:00:41.833Z,5.16
2023-06-07T11:01:41.931Z,3.81
2023-06-07T11:02:42.034Z,4.49
2023-06-07T11:03:42.137Z,4.88
2023-06-07T11:04:42.473Z,5.44
2023-06-07T11:05:42.051Z,4.07
2023-06-07T11:06:42.080Z,3.69
2023-06-07T11:07:42.078Z,2.71
2023-06-07T11:08:42.139Z,2.49
2023-06-07T11:09:42.240Z,1.98
2023-06-07T11:10:42.185Z,2.13
2023-06-07T11:11:42.236Z,1.98
2023-06-07T11:12:42.629Z,1.35
2023-06-07T11:13:42.338Z,1.24
2023-06-07T11:14:42.359Z,1.30
2023-06-07T11:15:42.477Z,1.10
2023-06-07T11:16:42.527Z,1.08
2023-06-07T11:17:42.556Z,0.92
2023-06-07T11:18:42.571Z,0.82
2023-06-07T11:19:42.640Z,1.12
2023-06-07T11:20:42.710Z,1.20
2023-06-07T11:21:42.764Z,1.05
2023-06-07T11:22:42.796Z,0.88
2023-06-07T11:23:42.875Z,1.12
2023-06-07T11:24:45.840Z,0.77
2023-06-07T11:25:42.927Z,0.71
2023-06-07T11:26:42.912Z,0.61
2023-06-07T11:27:42.918Z,0.51
2023-06-07T11:28:42.903Z,0.57
2023-06-07T11:29:42.998Z,0.60
2023-06-07T11:30:42.889Z,0.51
2023-06-07T11:31:42.904Z,0.50
2023-06-07T11:32:42.893Z,0.58
2023-06-07T11:33:42.882Z,0.51
2023-06-07T11:34:42.860Z,0.50
2023-06-07T11:35:42.890Z,0.58
2023-06-07T11:36:42.865Z,0.68
2023-06-07T11:37:42.911Z,0.70
2023-06-07T11:38:42.895Z,0.94
2023-06-07T11:39:42.827Z,1.16
2023-06-07T11:40:42.814Z,1.26
2023-06-07T11:41:42.839Z,1.35
2023-06-07T11:42:42.813Z,0.66
2023-06-07T11:43:42.794Z,0.46
2023-06-07T11:44:42.820Z,0.57
2023-06-07T11:45:42.766Z,0.40
2023-06-07T11:46:42.864Z,0.34
2023-06-07T11:47:42.900Z,0.44
2023-06-07T11:48:42.863Z,0.60
2023-06-07T11:49:42.770Z,0.65
2023-06-07T11:50:42.732Z,1.25
2023-06-07T11:51:42.776Z,2.96
2023-06-07T11:52:42.752Z,4.95
2023-06-07T11:53:42.750Z,7.98
2023-06-07T11:54:42.738Z,12.62
2023-06-07T11:55:42.711Z,19.64
2023-06-07T11:56:42.702Z,29.62
2023-06-07T11:57:42.693Z,37.74
2023-06-07T11:58:42.677Z,52.32
2023-06-07T11:59:42.681Z,64.99
2023-06-07T12:00:42.746Z,67.20
2023-06-07T12:01:42.674Z,90.05
2023-06-07T12:02:42.724Z,114.32
2023-06-07T12:03:45.221Z,134.26
2023-06-07T12:04:42.726Z,110.31
2023-06-07T12:05:42.708Z,129.32
2023-06-07T12:06:42.704Z,150.69
2023-06-07T12:07:42.683Z,135.13
2023-06-07T12:08:42.690Z,133.35
2023-06-07T12:09:42.668Z,152.30
2023-06-07T12:10:42.671Z,159.12
2023-06-07T12:11:42.661Z,113.50
2023-06-07T12:12:42.651Z,117.69
2023-06-07T12:13:42.672Z,105.66
2023-06-07T12:14:42.628Z,120.67
2023-06-07T12:15:42.727Z,129.59
2023-06-07T12:16:42.644Z,95.89
2023-06-07T12:17:42.669Z,90.86
2023-06-07T12:18:42.607Z,107.98
2023-06-07T12:19:42.597Z,107.91
2023-06-07T12:20:42.655Z,91.11
2023-06-07T12:21:42.601Z,83.13
2023-06-07T12:22:42.580Z,73.29
2023-06-07T12:23:42.583Z,80.04
2023-06-07T12:24:42.568Z,98.57
2023-06-07T12:25:42.746Z,88.23
2023-06-07T12:26:42.575Z,68.86
2023-06-07T12:27:42.550Z,60.74
2023-06-07T12:28:42.537Z,65.43
2023-06-07T12:29:42.522Z,59.64
2023-06-07T12:30:42.528Z,54.68
2023-06-07T12:31:42.574Z,56.46
2023-06-07T12:32:42.555Z,55.62
2023-06-07T12:33:42.525Z,54.97
2023-06-07T12:34:42.502Z,47.82
2023-06-07T12:35:42.477Z,50.37
2023-06-07T12:36:42.484Z,47.77
2023-06-07T12:37:42.454Z,47.30
2023-06-07T12:38:42.466Z,45.80
2023-06-07T12:39:42.466Z,43.52
2023-06-07T12:40:42.480Z,48.46
2023-06-07T12:41:42.478Z,46.82
2023-06-07T12:42:42.446Z,51.74
2023-06-07T12:43:42.430Z,45.62
2023-06-07T12:44:42.439Z,55.72
2023-06-07T12:45:42.420Z,57.95
2023-06-07T12:46:42.442Z,61.13
2023-06-07T12:47:42.475Z,54.44
2023-06-07T12:48:42.412Z,54.44
2023-06-07T12:49:42.417Z,52.11
2023-06-07T12:50:42.428Z,49.10
2023-06-07T12:51:42.509Z,51.12
2023-06-07T12:52:42.587Z,44.02
2023-06-07T12:53:42.657Z,40.16
2023-06-07T12:54:42.682Z,39.33
2023-06-07T12:55:42.729Z,40.79
2023-06-07T12:56:42.717Z,40.11
2023-06-07T12:57:42.693Z,44.65
2023-06-07T12:58:42.698Z,41.51
2023-06-07T12:59:42.735Z,36.39
2023-06-07T13:00:42.814Z,39.78